createdAt,value
2023-04-01T00:01:49.011Z,75125.59
2023-04-01T00:04:16.869Z,75125.59
2023-04-01T00:06:44.418Z,75125.59
2023-04-01T00:09:11.841Z,75123.56
2023-04-01T00:11:39.507Z,75121.53
2023-04-01T00:14:07.766Z,75121.53
2023-04-01T00:16:34.839Z,75121.53
2023-04-01T00:19:02.230Z,75125.59
2023-04-01T00:21:29.107Z,75121.53
2023-04-01T00:23:56.926Z,75121.53
2023-04-01T00:26:23.811Z,75117.47
2023-04-01T00:28:52.068Z,75117.47
2023-04-01T00:31:19.638Z,75109.38
2023-04-01T00:33:46.863Z,75109.38
2023-04-01T00:36:20.346Z,75109.38
2023-04-01T00:38:48.005Z,75113.44
2023-04-01T00:41:18.056Z,75117.47
2023-04-01T00:43:48.176Z,75113.44
2023-04-01T00:46:15.756Z,75129.63
2023-04-01T00:48:48.475Z,75129.63
2023-04-01T00:51:18.499Z,75133.69
2023-04-01T00:53:49.487Z,75127.63
2023-04-01T00:56:20.887Z,75125.59
2023-04-01T00:58:51.502Z,75121.53
2023-04-01T01:01:19.876Z,75121.53
2023-04-01T01:03:47.083Z,75119.50
2023-04-01T01:06:26.766Z,75125.59
2023-04-01T01:09:15.389Z,75119.50
2023-04-01T01:11:48.344Z,75117.47
2023-04-01T01:14:38.692Z,75119.50
2023-04-01T01:17:45.399Z,75113.44
2023-04-01T01:20:41.664Z,75117.47
2023-04-01T01:23:46.245Z,75121.53
2023-04-01T01:26:50.225Z,75115.47
2023-04-01T01:29:29.581Z,75121.53
2023-04-01T01:32:12.495Z,75121.53
2023-04-01T01:34:54.223Z,75121.53
2023-04-01T01:37:26.154Z,75125.59
2023-04-01T01:39:59.342Z,75125.59
2023-04-01T01:42:28.644Z,75129.63
2023-04-01T01:44:58.944Z,75125.59
2023-04-01T01:47:27.996Z,75125.59
2023-04-01T01:49:56.305Z,75125.59
2023-04-01T01:52:25.000Z,75125.59
2023-04-01T01:54:57.648Z,75125.59
2023-04-01T01:57:32.833Z,75121.53
2023-04-01T02:00:13.919Z,75125.59
2023-04-01T02:02:43.586Z,75117.47
2023-04-01T02:05:17.110Z,75121.53
2023-04-01T02:07:50.516Z,75121.53
2023-04-01T02:10:18.906Z,75121.53
2023-04-01T02:12:48.021Z,75117.47
2023-04-01T02:15:17.110Z,75121.53
2023-04-01T02:17:46.978Z,75125.59
2023-04-01T02:20:18.655Z,75133.69
2023-04-01T02:22:51.191Z,75133.69
2023-04-01T02:25:26.558Z,75133.69
2023-04-01T02:27:55.875Z,75129.63
2023-04-01T02:30:24.327Z,75117.47
2023-04-01T02:32:51.830Z,75121.53
2023-04-01T02:35:19.235Z,75121.53
2023-04-01T02:37:49.578Z,75125.59
2023-04-01T02:40:17.901Z,75117.47
2023-04-01T02:42:46.766Z,75125.59
2023-04-01T02:45:14.817Z,75133.69
2023-04-01T02:47:42.663Z,75145.84
2023-04-01T02:50:11.078Z,75149.91
2023-04-01T02:52:38.445Z,75153.94
2023-04-01T02:55:06.796Z,75155.97
2023-04-01T02:57:34.177Z,75160.03
2023-04-01T03:00:01.171Z,75166.09
2023-04-01T03:02:28.879Z,75166.09
2023-04-01T03:04:56.122Z,75170.16
2023-04-01T03:07:23.379Z,75170.16
2023-04-01T03:09:50.422Z,75170.16
2023-04-01T03:12:17.778Z,75166.09
2023-04-01T03:14:50.732Z,75162.06
2023-04-01T03:17:18.152Z,75168.13
2023-04-01T03:19:45.791Z,75162.06
2023-04-01T03:22:13.312Z,75162.06
2023-04-01T03:24:40.375Z,75166.09
2023-04-01T03:27:07.528Z,75162.06
2023-04-01T03:29:34.614Z,75153.94
2023-04-01T03:32:01.990Z,75153.94
2023-04-01T03:34:28.981Z,75162.06
2023-04-01T03:36:56.357Z,75174.22
2023-04-01T03:39:23.419Z,75178.28
2023-04-01T03:41:51.177Z,75176.25
2023-04-01T03:44:18.317Z,75178.28
2023-04-01T03:46:49.027Z,75186.38
2023-04-01T03:49:16.200Z,75186.38
2023-04-01T03:51:44.584Z,75188.41
2023-04-01T03:54:12.660Z,75190.44
2023-04-01T03:56:40.578Z,75188.41
2023-04-01T03:59:08.817Z,75194.47
2023-04-01T04:01:36.200Z,75190.44
2023-04-01T04:04:03.447Z,75188.41
2023-04-01T04:06:30.819Z,75188.41
2023-04-01T04:08:58.013Z,75182.31
2023-04-01T04:11:25.309Z,75184.34
2023-04-01T04:13:54.038Z,75182.31
2023-04-01T04:16:22.264Z,75194.47
2023-04-01T04:18:55.995Z,75190.44
2023-04-01T04:21:23.996Z,75190.44
2023-04-01T04:23:52.549Z,75202.59
2023-04-01T04:26:21.246Z,75194.47
2023-04-01T04:28:56.416Z,75194.47
2023-04-01T04:31:25.316Z,75194.47
2023-04-01T04:33:54.187Z,75188.41
2023-04-01T04:36:22.964Z,75198.53
2023-04-01T04:38:51.545Z,75192.44
2023-04-01T04:41:20.382Z,75194.47
2023-04-01T04:43:55.538Z,75190.44
2023-04-01T04:46:24.601Z,75194.47
2023-04-01T04:48:58.290Z,75194.47
2023-04-01T04:51:26.087Z,75190.44
2023-04-01T04:53:53.520Z,75194.47
2023-04-01T04:56:29.492Z,75184.34
2023-04-01T04:59:08.484Z,75186.38
2023-04-01T05:01:52.005Z,75182.31
2023-04-01T05:04:19.249Z,75198.53
2023-04-01T05:06:46.555Z,75198.53
2023-04-01T05:09:14.739Z,75198.53
2023-04-01T05:11:42.478Z,75190.44
2023-04-01T05:14:17.387Z,75194.47
2023-04-01T05:16:53.145Z,75188.41
2023-04-01T05:19:20.419Z,75182.31
2023-04-01T05:21:48.697Z,75190.44
2023-04-01T05:24:16.882Z,75186.38
2023-04-01T05:26:45.389Z,75182.31
2023-04-01T05:29:13.526Z,75190.44
2023-04-01T05:31:42.371Z,75190.44
2023-04-01T05:34:09.581Z,75190.44
2023-04-01T05:36:36.954Z,75178.28
2023-04-01T05:39:04.682Z,75176.25
2023-04-01T05:41:31.927Z,75158.00
2023-04-01T05:43:58.889Z,75166.09
2023-04-01T05:46:41.568Z,75170.16
2023-04-01T05:49:29.364Z,75174.22
2023-04-01T05:51:57.563Z,75186.38
2023-04-01T05:54:24.737Z,75170.16
2023-04-01T05:56:52.120Z,75166.09
2023-04-01T05:59:20.833Z,75153.94
2023-04-01T06:01:48.764Z,75133.69
2023-04-01T06:04:18.806Z,75125.59
2023-04-01T06:06:47.292Z,75125.59
2023-04-01T06:09:22.688Z,75123.56
2023-04-01T06:11:52.850Z,75125.59
2023-04-01T06:14:31.981Z,75129.63
2023-04-01T06:17:32.510Z,75129.63
2023-04-01T06:20:34.244Z,75125.59
2023-04-01T06:23:11.313Z,75115.47
2023-04-01T06:26:16.010Z,75093.16
2023-04-01T06:28:52.424Z,75089.13
2023-04-01T06:31:28.577Z,75081.00
2023-04-01T06:34:08.074Z,75076.97
2023-04-01T06:36:48.898Z,75066.81
2023-04-01T06:39:38.608Z,75068.84
2023-04-01T06:42:14.681Z,75070.88
2023-04-01T06:44:50.213Z,75081.00
2023-04-01T06:47:52.939Z,75085.06
2023-04-01T06:50:49.977Z,75101.28
2023-04-01T06:54:07.600Z,75097.22
2023-04-01T06:56:59.136Z,75081.00
2023-04-01T06:59:31.075Z,75076.97
2023-04-01T07:02:23.318Z,75062.78
2023-04-01T07:04:54.494Z,75060.75
2023-04-01T07:07:43.673Z,75072.91
2023-04-01T07:10:32.683Z,75081.00
2023-04-01T07:13:26.883Z,75089.13
2023-04-01T07:16:01.391Z,75093.16
2023-04-01T07:18:59.622Z,75091.13
2023-04-01T07:21:43.881Z,75105.31
2023-04-01T07:24:38.145Z,75099.25
2023-04-01T07:27:19.976Z,75117.47
2023-04-01T07:29:48.454Z,75109.38
2023-04-01T07:32:28.077Z,75119.50
2023-04-01T07:34:57.693Z,75111.41
2023-04-01T07:37:39.294Z,75129.63
2023-04-01T07:40:28.108Z,75129.63
2023-04-01T07:43:14.327Z,75117.47
2023-04-01T07:45:48.058Z,75101.28
2023-04-01T07:48:36.302Z,75095.19
2023-04-01T07:51:14.703Z,75081.00
2023-04-01T07:53:49.902Z,75076.97
2023-04-01T07:56:42.757Z,75044.53
2023-04-01T07:59:23.894Z,75024.28
2023-04-01T08:02:27.289Z,75012.13
2023-04-01T08:05:06.671Z,75008.06
2023-04-01T08:07:46.697Z,75008.06
2023-04-01T08:10:43.160Z,75012.13
2023-04-01T08:13:58.439Z,74991.84
2023-04-01T08:16:43.893Z,74987.81
2023-04-01T08:19:31.244Z,74987.81
2023-04-01T08:22:05.680Z,74971.59
2023-04-01T08:24:48.349Z,74943.22
2023-04-01T08:27:29.364Z,74943.22
2023-04-01T08:30:22.474Z,74943.22
2023-04-01T08:33:29.601Z,74955.38
2023-04-01T08:36:16.736Z,74951.34
2023-04-01T08:38:56.553Z,74975.66
2023-04-01T08:41:39.868Z,75002.00
2023-04-01T08:45:01.223Z,75018.19
2023-04-01T08:47:51.545Z,75032.38
2023-04-01T08:50:25.212Z,75052.66
2023-04-01T08:53:44.842Z,75062.78
2023-04-01T08:56:43.367Z,75097.22
2023-04-01T08:59:25.500Z,75093.16
2023-04-01T09:02:11.299Z,75105.31
2023-04-01T09:05:40.625Z,75072.91
2023-04-01T09:08:13.846Z,75058.72
2023-04-01T09:11:06.097Z,75038.47
2023-04-01T09:14:12.939Z,75016.16
2023-04-01T09:17:20.260Z,75024.28
2023-04-01T09:20:05.294Z,75036.44
2023-04-01T09:22:49.281Z,75044.53
2023-04-01T09:25:53.898Z,75052.66
2023-04-01T09:28:29.561Z,75072.91
2023-04-01T09:31:09.298Z,75078.97
2023-04-01T09:34:23.595Z,75085.06
2023-04-01T09:37:20.182Z,75109.38
2023-04-01T09:40:13.617Z,75109.38
2023-04-01T09:42:44.713Z,75111.41
2023-04-01T09:45:33.610Z,75129.63
2023-04-01T09:48:59.656Z,75149.91
2023-04-01T09:51:38.557Z,75186.38
2023-04-01T09:54:07.081Z,75202.59
2023-04-01T09:56:43.858Z,75210.69
2023-04-01T09:59:48.294Z,75222.84
2023-04-01T10:02:45.583Z,75239.06
2023-04-01T10:05:28.253Z,75243.09
2023-04-01T10:08:29.183Z,75210.69
2023-04-01T10:11:24.609Z,75192.44
2023-04-01T10:14:17.414Z,75174.22
2023-04-01T10:17:15.504Z,75170.16
2023-04-01T10:20:08.582Z,75172.19
2023-04-01T10:23:05.715Z,75182.31
2023-04-01T10:26:12.375Z,75184.34
2023-04-01T10:29:17.421Z,75190.44
2023-04-01T10:32:10.405Z,75192.44
2023-04-01T10:35:08.556Z,75149.91
2023-04-01T10:37:59.228Z,75097.22
2023-04-01T10:40:58.493Z,75072.91
2023-04-01T10:43:41.443Z,75081.00
2023-04-01T10:46:17.072Z,75093.16
2023-04-01T10:49:06.053Z,75121.53
2023-04-01T10:52:13.970Z,75137.75
2023-04-01T10:55:20.134Z,75149.91
2023-04-01T10:58:28.459Z,75153.94
2023-04-01T11:01:46.103Z,75155.97
2023-04-01T11:05:04.239Z,75145.84
2023-04-01T11:08:20.876Z,75133.69
2023-04-01T11:10:52.040Z,75113.44
2023-04-01T11:14:04.258Z,75109.38
2023-04-01T11:16:50.439Z,75089.13
2023-04-01T11:19:34.053Z,75064.81
2023-04-01T11:22:30.446Z,75036.44
2023-04-01T11:25:04.318Z,75030.34
2023-04-01T11:28:02.899Z,75020.22
2023-04-01T11:31:00.224Z,75020.22
2023-04-01T11:34:07.388Z,74995.91
2023-04-01T11:36:38.662Z,74987.81
2023-04-01T11:39:24.927Z,74975.66
2023-04-01T11:42:29.327Z,74943.22
2023-04-01T11:45:36.163Z,74927.03
2023-04-01T11:48:33.992Z,74922.97
2023-04-01T11:51:04.230Z,74922.97
2023-04-01T11:53:55.548Z,74918.91
2023-04-01T11:56:35.610Z,74922.97
2023-04-01T11:59:43.976Z,74922.97
2023-04-01T12:02:30.164Z,74906.75
2023-04-01T12:05:20.890Z,74894.59
2023-04-01T12:08:04.644Z,74886.50
2023-04-01T12:10:53.412Z,74878.41
2023-04-01T12:13:42.520Z,74886.50
2023-04-01T12:16:23.569Z,74896.63
2023-04-01T12:19:20.050Z,74906.75
2023-04-01T12:22:16.333Z,74908.78
2023-04-01T12:24:59.847Z,74882.44
2023-04-01T12:27:43.376Z,74874.34
2023-04-01T12:30:34.258Z,74862.19
2023-04-01T12:33:40.237Z,74837.88
2023-04-01T12:36:41.263Z,74823.69
2023-04-01T12:39:20.280Z,74805.47
2023-04-01T12:41:52.656Z,74801.41
2023-04-01T12:44:54.620Z,74785.19
2023-04-01T12:47:59.044Z,74748.72
2023-04-01T12:50:57.909Z,74716.31
2023-04-01T12:53:56.154Z,74722.38
2023-04-01T12:56:35.364Z,74752.78
2023-04-01T12:59:27.180Z,74742.66
2023-04-01T13:01:57.610Z,74724.41
2023-04-01T13:05:06.960Z,74683.91
2023-04-01T13:08:01.147Z,74669.72
2023-04-01T13:10:45.786Z,74675.78
2023-04-01T13:13:41.015Z,74687.94
2023-04-01T13:16:11.176Z,74732.53
2023-04-01T13:18:44.549Z,74769.00
2023-04-01T13:21:32.107Z,74803.44
2023-04-01T13:24:21.913Z,74850.03
2023-04-01T13:27:22.448Z,74890.56
2023-04-01T13:30:04.364Z,74914.88
2023-04-01T13:32:50.079Z,74939.19
2023-04-01T13:35:47.197Z,74955.38
2023-04-01T13:38:56.737Z,74969.56
2023-04-01T13:41:36.500Z,74995.91
2023-04-01T13:44:08.666Z,75016.16
2023-04-01T13:46:57.680Z,75060.75
2023-04-01T13:49:49.504Z,75129.63
2023-04-01T13:52:43.961Z,75182.31
2023-04-01T13:55:26.547Z,75232.97
2023-04-01T13:58:12.197Z,75263.38
2023-04-01T14:01:13.675Z,75277.56
2023-04-01T14:04:25.709Z,75275.53
2023-04-01T14:06:58.544Z,75271.47
2023-04-01T14:09:47.605Z,75271.47
2023-04-01T14:12:51.941Z,75255.25
2023-04-01T14:15:53.850Z,75247.16
2023-04-01T14:18:25.027Z,75235.00
2023-04-01T14:21:14.664Z,75202.59
2023-04-01T14:24:25.100Z,75198.53
2023-04-01T14:27:19.264Z,75222.84
2023-04-01T14:30:16.306Z,75230.94
2023-04-01T14:33:01.539Z,75243.09
2023-04-01T14:35:53.830Z,75263.38
2023-04-01T14:38:40.868Z,75269.44
2023-04-01T14:41:45.849Z,75283.63
2023-04-01T14:44:32.381Z,75312.00
2023-04-01T14:46:59.437Z,75316.06
2023-04-01T14:49:41.296Z,75322.13
2023-04-01T14:52:22.881Z,75332.28
2023-04-01T14:54:52.938Z,75330.25
2023-04-01T14:57:26.487Z,75338.34
2023-04-01T15:00:03.613Z,75346.44
2023-04-01T15:03:02.591Z,75352.53
2023-04-01T15:06:07.998Z,75358.63
2023-04-01T15:08:45.528Z,75364.69
2023-04-01T15:11:25.007Z,75368.75
2023-04-01T15:14:06.528Z,75386.97
2023-04-01T15:17:08.404Z,75397.13
2023-04-01T15:19:56.465Z,75415.34
2023-04-01T15:23:09.329Z,75421.44
2023-04-01T15:25:53.420Z,75425.47
2023-04-01T15:28:54.914Z,75431.56
2023-04-01T15:31:36.503Z,75435.63
2023-04-01T15:34:26.620Z,75445.75
2023-04-01T15:37:32.020Z,75457.91
2023-04-01T15:40:25.950Z,75466.00
2023-04-01T15:42:55.968Z,75470.06
2023-04-01T15:45:40.438Z,75466.00
2023-04-01T15:48:32.812Z,75478.16
2023-04-01T15:51:20.115Z,75476.16
2023-04-01T15:53:58.304Z,75474.13
2023-04-01T15:56:42.431Z,75486.28
2023-04-01T15:59:22.079Z,75486.28
2023-04-01T16:02:08.251Z,75494.38
2023-04-01T16:04:47.667Z,75506.53
2023-04-01T16:07:21.299Z,75514.66
2023-04-01T16:10:10.691Z,75506.53
2023-04-01T16:12:55.887Z,75510.59
2023-04-01T16:15:38.475Z,75502.50
2023-04-01T16:18:23.227Z,75494.38
2023-04-01T16:21:00.626Z,75498.44
2023-04-01T16:23:40.521Z,75502.50
2023-04-01T16:26:31.711Z,75502.50
2023-04-01T16:29:18.983Z,75506.53
2023-04-01T16:32:08.950Z,75494.38
2023-04-01T16:34:46.530Z,75506.53
2023-04-01T16:37:35.098Z,75500.47
2023-04-01T16:40:33.207Z,75510.59
2023-04-01T16:43:37.789Z,75518.69
2023-04-01T16:46:07.773Z,75538.97
2023-04-01T16:49:00.551Z,75541.00
2023-04-01T16:51:37.634Z,75543.00
2023-04-01T16:54:18.119Z,75547.06
2023-04-01T16:57:17.083Z,75559.22
2023-04-01T16:59:49.216Z,75563.28
2023-04-01T17:02:21.851Z,75575.44
2023-04-01T17:04:50.469Z,75575.44
2023-04-01T17:07:48.298Z,75587.59
2023-04-01T17:10:29.259Z,75603.81
2023-04-01T17:13:09.324Z,75603.81
2023-04-01T17:15:42.234Z,75603.81
2023-04-01T17:18:15.397Z,75601.78
2023-04-01T17:21:12.017Z,75607.88
2023-04-01T17:23:52.084Z,75611.91
2023-04-01T17:26:26.155Z,75611.91
2023-04-01T17:28:57.871Z,75611.91
2023-04-01T17:31:41.804Z,75620.03
2023-04-01T17:34:24.603Z,75624.06
2023-04-01T17:37:22.388Z,75624.06
2023-04-01T17:40:36.371Z,75624.06
2023-04-01T17:43:32.467Z,75632.19
2023-04-01T17:46:23.443Z,75632.19
2023-04-01T17:49:04.262Z,75640.28
2023-04-01T17:51:38.512Z,75640.28
2023-04-01T17:54:29.688Z,75642.31
2023-04-01T17:56:57.080Z,75648.41
2023-04-01T17:59:36.858Z,75658.53
2023-04-01T18:02:38.238Z,75648.41
2023-04-01T18:05:24.449Z,75656.50
2023-04-01T18:08:10.109Z,75652.44
2023-04-01T18:11:02.053Z,75656.50
2023-04-01T18:13:48.326Z,75666.63
2023-04-01T18:16:15.403Z,75668.66
2023-04-01T18:19:00.855Z,75668.66
2023-04-01T18:21:53.202Z,75686.91
2023-04-01T18:24:45.060Z,75697.03
2023-04-01T18:27:30.983Z,75709.19
2023-04-01T18:30:04.463Z,75717.28
2023-04-01T18:32:37.893Z,75725.41
2023-04-01T18:35:29.742Z,75743.66
2023-04-01T18:38:34.496Z,75753.78
2023-04-01T18:41:15.612Z,75753.78
2023-04-01T18:44:04.540Z,75761.88
2023-04-01T18:47:00.074Z,75757.81
2023-04-01T18:49:31.561Z,75761.88
2023-04-01T18:52:05.228Z,75774.03
2023-04-01T18:54:42.802Z,75765.94
2023-04-01T18:57:15.021Z,75774.03
2023-04-01T18:59:46.312Z,75770.00
2023-04-01T19:02:32.336Z,75782.16
2023-04-01T19:05:24.348Z,75782.16
2023-04-01T19:07:58.049Z,75790.25
2023-04-01T19:10:34.437Z,75788.22
2023-04-01T19:13:31.576Z,75802.41
2023-04-01T19:16:04.482Z,75798.38
2023-04-01T19:18:37.748Z,75806.47
2023-04-01T19:21:07.458Z,75798.38
2023-04-01T19:24:01.988Z,75808.50
2023-04-01T19:26:40.226Z,75818.63
2023-04-01T19:29:46.568Z,75818.63
2023-04-01T19:32:51.503Z,75822.69
2023-04-01T19:35:31.070Z,75834.84
2023-04-01T19:38:05.448Z,75838.91
2023-04-01T19:40:57.551Z,75838.91
2023-04-01T19:43:24.409Z,75842.94
2023-04-01T19:46:00.926Z,75842.94
2023-04-01T19:49:07.516Z,75853.09
2023-04-01T19:51:48.177Z,75851.06
2023-04-01T19:54:45.697Z,75867.28
2023-04-01T19:57:34.355Z,75863.22
2023-04-01T20:00:17.772Z,75871.31
2023-04-01T20:02:57.393Z,75867.28
2023-04-01T20:05:36.735Z,75863.22
2023-04-01T20:08:19.399Z,75877.41
2023-04-01T20:11:24.566Z,75867.28
2023-04-01T20:13:58.793Z,75871.31
2023-04-01T20:16:54.547Z,75877.41
2023-04-01T20:19:30.127Z,75883.47
2023-04-01T20:22:01.470Z,75883.47
2023-04-01T20:24:42.999Z,75887.53
2023-04-01T20:27:19.468Z,75891.59
2023-04-01T20:30:17.758Z,75901.72
2023-04-01T20:33:09.793Z,75911.84
2023-04-01T20:36:16.965Z,75919.97
2023-04-01T20:39:20.452Z,75924.00
2023-04-01T20:41:53.653Z,75928.06
2023-04-01T20:44:49.980Z,75940.22
2023-04-01T20:47:47.915Z,75946.31
2023-04-01T20:51:00.535Z,75948.34
2023-04-01T20:53:36.453Z,75964.56
2023-04-01T20:56:31.206Z,75964.56
2023-04-01T20:59:16.952Z,75958.47
2023-04-01T21:02:10.995Z,75960.50
2023-04-01T21:05:28.183Z,75972.66
2023-04-01T21:08:37.570Z,75980.75
2023-04-01T21:11:17.325Z,75980.75
2023-04-01T21:13:55.923Z,75984.81
2023-04-01T21:16:45.009Z,75992.94
2023-04-01T21:19:33.316Z,76005.09
2023-04-01T21:22:16.748Z,76009.13
2023-04-01T21:24:52.751Z,76017.25
2023-04-01T21:27:25.668Z,76013.19
2023-04-01T21:30:20.057Z,76017.25
2023-04-01T21:33:16.898Z,76021.31
2023-04-01T21:36:21.924Z,76025.34
2023-04-01T21:38:55.519Z,76029.41
2023-04-01T21:41:31.530Z,76035.47
2023-04-01T21:44:41.654Z,76033.47
2023-04-01T21:48:00.353Z,76033.47
2023-04-01T21:50:46.456Z,76041.56
2023-04-01T21:53:38.960Z,76045.63
2023-04-01T21:56:23.546Z,76049.69
2023-04-01T21:59:17.731Z,76053.72
2023-04-01T22:02:03.375Z,76053.72
2023-04-01T22:04:32.979Z,76047.66
2023-04-01T22:07:18.634Z,76051.69
2023-04-01T22:10:03.438Z,76053.72
2023-04-01T22:12:41.918Z,76059.81
2023-04-01T22:15:30.531Z,76069.94
2023-04-01T22:18:15.261Z,76065.88
2023-04-01T22:20:58.184Z,76061.84
2023-04-01T22:23:38.007Z,76065.88
2023-04-01T22:26:24.399Z,76071.97
2023-04-01T22:29:42.938Z,76082.09
2023-04-01T22:32:39.328Z,76090.22
2023-04-01T22:35:16.267Z,76098.31
2023-04-01T22:37:48.946Z,76102.38
2023-04-01T22:40:31.418Z,76106.41
2023-04-01T22:43:02.681Z,76106.41
2023-04-01T22:45:49.291Z,76110.47
2023-04-01T22:48:34.406Z,76110.47
2023-04-01T22:51:08.443Z,76122.63
2023-04-01T22:53:50.833Z,76118.59
2023-04-01T22:56:40.757Z,76126.69
2023-04-01T22:59:28.756Z,76126.69
2023-04-01T23:02:06.029Z,76134.78
2023-04-01T23:04:38.674Z,76132.78
2023-04-01T23:07:47.505Z,76134.78
2023-04-01T23:10:36.230Z,76146.97
2023-04-01T23:13:04.963Z,76151.00
2023-04-01T23:15:35.876Z,76151.00
2023-04-01T23:18:08.253Z,76151.00
2023-04-01T23:20:43.441Z,76159.13
2023-04-01T23:23:17.296Z,76163.19
2023-04-01T23:25:54.433Z,76167.22
2023-04-01T23:28:39.057Z,76171.28
2023-04-01T23:31:25.950Z,76175.34
2023-04-01T23:34:02.780Z,76187.50
2023-04-01T23:36:31.007Z,76183.44
2023-04-01T23:39:05.282Z,76187.50
2023-04-01T23:41:34.017Z,76195.59
2023-04-01T23:44:12.408Z,76201.69
2023-04-01T23:46:41.607Z,76205.75
2023-04-01T23:49:37.152Z,76215.88
2023-04-01T23:52:12.992Z,76217.91
2023-04-01T23:54:45.466Z,76223.97
2023-04-01T23:57:17.090Z,76223.97
2023-04-01T23:59:44.486Z,76223.97
